Time,TemperatureF,DewpointF,PressureIn,WindDirection,WindDirectionDegrees,WindSpeedMPH,WindSpeedGustMPH,Humidity,HourlyPrecipIn,Conditions,Clouds,dailyrainin,SoftwareType,DateUTC
2017-03-23 00:00:00,35.0,32.4,29.98,WSW,254,0.0,0.0,90,0.00,,,0.00,LWC V2.00 B2112,2017-03-23 07:00:00,
2017-03-23 00:05:00,35.0,32.4,29.98,WSW,254,0.0,0.0,90,0.00,,,0.00,LWC V2.00 B2112,2017-03-23 07:05:00,
2017-03-23 00:10:00,35.0,32.4,29.98,West,278,0.0,1.0,90,0.00,,,0.00,LWC V2.00 B2112,2017-03-23 07:10:00,
2017-03-23 00:15:00,35.2,32.6,29.98,West,278,0.0,0.0,90,0.00,,,0.00,LWC V2.00 B2112,2017-03-23 07:15:00,
2017-03-23 00:20:00,35.2,32.6,29.98,West,278,0.0,0.0,90,0.00,,,0.00,LWC V2.00 B2112,2017-03-23 07:20:00,
2017-03-23 00:25:00,35.1,32.5,29.98,WNW,286,3.0,3.0,90,0.00,,,0.00,LWC V2.00 B2112,2017-03-23 07:25:00,
2017-03-23 00:30:00,35.1,32.5,29.98,WNW,289,1.0,3.0,90,0.00,,,0.00,LWC V2.00 B2112,2017-03-23 07:30:00,
2017-03-23 00:35:00,35.1,32.5,29.99,WSW,258,2.0,2.0,90,0.00,,,0.00,LWC V2.00 B2112,2017-03-23 07:35:00,
2017-03-23 00:40:00,34.8,32.2,29.99,NNW,329,0.0,2.0,90,0.00,,,0.00,LWC V2.00 B2112,2017-03-23 07:40:00,
2017-03-23 00:45:00,34.8,32.2,29.99,NNW,329,0.0,0.0,90,0.00,,,0.00,LWC V2.00 B2112,2017-03-23 07:45:00,
2017-03-23 00:50:00,34.8,32.2,29.99,NNW,329,2.0,2.0,90,0.00,,,0.00,LWC V2.00 B2112,2017-03-23 07:50:00,
2017-03-23 00:55:00,34.8,32.2,29.99,NNW,329,0.0,0.0,90,0.00,,,0.00,LWC V2.00 B2112,2017-03-23 07:55:00,
2017-03-23 01:00:00,34.8,32.2,30.00,SW,231,0.0,0.0,90,0.00,,,0.00,LWC V2.00 B2112,2017-03-23 08:00:00,
2017-03-23 01:05:00,34.8,32.2,30.00,NW,313,0.0,0.0,90,0.00,,,0.00,LWC V2.00 B2112,2017-03-23 08:05:00,
2017-03-23 01:10:00,34.8,32.2,30.00,NW,313,2.0,2.0,90,0.00,,,0.00,LWC V2.00 B2112,2017-03-23 08:10:00,
2017-03-23 01:15:00,34.8,32.2,30.00,WNW,295,2.0,2.0,90,0.00,,,0.00,LWC V2.00 B2112,2017-03-23 08:15:00,
2017-03-23 01:20:00,34.8,32.2,30.00,WNW,295,2.0,2.0,90,0.00,,,0.00,LWC V2.00 B2112,2017-03-23 08:20:00,
2017-03-23 01:21:00,34.8,32.2,30.00,WNW,295,2.0,2.0,90,0.00,,,0.00,LWC V2.00 B2112,2017-03-23 08:21:00,
2017-03-23 01:26:00,34.8,32.2,30.00,WNW,295,0.0,0.0,90,0.00,,,0.00,LWC V2.00 B2112,2017-03-23 08:26:00,
2017-03-23 01:31:00,34.8,32.2,30.00,WNW,295,0.0,0.0,90,0.00,,,0.00,LWC V2.00 B2112,2017-03-23 08:31:00,
2017-03-23 01:36:00,34.8,32.2,30.00,WNW,295,1.0,1.0,90,0.00,,,0.00,LWC V2.00 B2112,2017-03-23 08:36:00,
2017-03-23 01:41:00,34.8,32.2,30.00,NW,324,1.0,1.0,90,0.00,,,0.00,LWC V2.00 B2112,2017-03-23 08:41:00,
2017-03-23 01:46:00,34.8,32.2,30.00,NW,324,1.0,1.0,90,0.00,,,0.00,LWC V2.00 B2112,2017-03-23 08:46:00,
2017-03-23 01:51:00,34.8,32.2,30.00,NW,311,0.0,0.0,90,0.00,,,0.00,LWC V2.00 B2112,2017-03-23 08:51:00,
2017-03-23 01:56:00,33.2,30.6,30.00,WNW,283,2.0,2.0,90,0.00,,,0.00,LWC V2.00 B2112,2017-03-23 08:56:00,
2017-03-23 02:01:00,33.2,30.6,30.00,WNW,291,2.0,2.0,90,0.00,,,0.00,LWC V2.00 B2112,2017-03-23 09:01:00,
2017-03-23 02:06:00,33.0,30.4,30.00,West,261,0.0,0.0,90,0.00,,,0.00,LWC V2.00 B2112,2017-03-23 09:06:00,
2017-03-23 02:11:00,33.0,30.4,30.00,West,261,0.0,0.0,90,0.00,,,0.00,LWC V2.00 B2112,2017-03-23 09:11:00,
2017-03-23 02:16:00,33.0,30.4,30.00,West,261,0.0,0.0,90,0.00,,,0.00,LWC V2.00 B2112,2017-03-23 09:16:00,
2017-03-23 02:21:00,33.0,30.4,30.00,West,261,1.0,1.0,90,0.00,,,0.00,LWC V2.00 B2112,2017-03-23 09:21:00,
2017-03-23 02:31:00,33.0,30.4,30.01,WNW,302,1.0,1.0,90,0.00,,,0.00,LWC V2.00 B2112,2017-03-23 09:31:00,
2017-03-23 02:36:00,33.0,30.4,30.01,WNW,302,1.0,1.0,90,0.00,,,0.00,LWC V2.00 B2112,2017-03-23 09:36:00,
2017-03-23 02:41:00,33.0,30.4,30.01,NW,322,1.0,1.0,90,0.00,,,0.00,LWC V2.00 B2112,2017-03-23 09:41:00,
2017-03-23 02:46:00,32.6,30.0,30.01,NW,306,2.0,2.0,90,0.00,,,0.00,LWC V2.00 B2112,2017-03-23 09:46:00,
2017-03-23 02:51:00,32.6,30.0,30.01,NW,306,2.0,2.0,90,0.00,,,0.00,LWC V2.00 B2112,2017-03-23 09:51:00,
2017-03-23 02:56:00,33.0,30.4,30.02,NNE,27,0.0,0.0,90,0.00,,,0.00,LWC V2.00 B2112,2017-03-23 09:56:00,
2017-03-23 03:01:00,33.0,30.4,30.01,NNW,332,1.0,1.0,90,0.00,,,0.00,LWC V2.00 B2112,2017-03-23 10:01:00,
2017-03-23 03:06:00,32.7,30.1,30.02,WSW,250,0.0,0.0,90,0.00,,,0.00,LWC V2.00 B2112,2017-03-23 10:06:00,
2017-03-23 03:11:00,32.7,30.1,30.02,NNW,336,0.0,0.0,90,0.00,,,0.00,LWC V2.00 B2112,2017-03-23 10:11:00,
2017-03-23 03:16:00,32.4,29.8,30.02,NNW,336,0.0,0.0,90,0.00,,,0.00,LWC V2.00 B2112,2017-03-23 10:16:00,
2017-03-23 03:21:00,32.4,29.8,30.02,North,350,0.0,0.0,90,0.00,,,0.00,LWC V2.00 B2112,2017-03-23 10:21:00,
2017-03-23 03:26:00,32.4,29.8,30.02,NW,309,1.0,1.0,90,0.00,,,0.00,LWC V2.00 B2112,2017-03-23 10:26:00,